Time;durP1;ratioP1;P1;durP2;ratioP2;P2;SDS_P1;SDS_P2;PMS_P1;PMS_P2;Temp;Humidity;BMP_temperature;BMP_pressure;BME280_temperature;BME280_humidity;BME280_pressure;Samples;Min_cycle;Max_cycle;Signal;HPM_P1;HPM_P2
2023/04/19 00:00:29;;;;;;;14.60;8.83;;;11.40;77.10;;;;;;5037045;28;20185;-74
2023/04/19 00:02:55;;;;;;;16.00;9.57;;;11.40;77.40;;;;;;5055323;28;20550;-75
2023/04/19 00:05:23;;;;;;;18.17;9.83;;;11.40;77.40;;;;;;5054778;28;20463;-74
2023/04/19 00:07:49;;;;;;;15.77;9.83;;;11.40;77.40;;;;;;5048332;28;20311;-74
2023/04/19 00:10:15;;;;;;;16.63;9.60;;;11.40;77.40;;;;;;5054789;28;20411;-75
2023/04/19 00:12:40;;;;;;;16.57;9.47;;;11.40;77.60;;;;;;5035108;28;20423;-74
2023/04/19 00:15:07;;;;;;;17.80;10.30;;;11.30;77.70;;;;;;5055664;28;20176;-75
2023/04/19 00:17:33;;;;;;;17.80;10.00;;;11.40;77.70;;;;;;5050588;28;20208;-74
2023/04/19 00:19:59;;;;;;;18.63;9.63;;;11.40;77.60;;;;;;5055699;28;20438;-75
2023/04/19 00:22:25;;;;;;;20.27;10.30;;;11.30;77.60;;;;;;5055207;28;20423;-75
2023/04/19 00:24:51;;;;;;;19.17;10.70;;;11.40;77.70;;;;;;5061744;28;20192;-74
2023/04/19 00:27:17;;;;;;;20.07;10.53;;;11.40;77.70;;;;;;5062888;28;20985;-74
2023/04/19 00:29:43;;;;;;;19.67;10.70;;;11.30;77.70;;;;;;5043688;28;20478;-73
2023/04/19 00:32:09;;;;;;;17.03;9.63;;;11.30;77.60;;;;;;5072029;28;20419;-74
2023/04/19 00:34:35;;;;;;;19.37;10.70;;;11.20;77.80;;;;;;5067711;28;20185;-74
2023/04/19 00:37:03;;;;;;;21.97;10.37;;;11.20;78.30;;;;;;5050664;28;20516;-75
2023/04/19 00:39:29;;;;;;;19.47;10.97;;;11.10;78.40;;;;;;5034322;28;20195;-75
2023/04/19 00:41:56;;;;;;;19.40;10.73;;;11.10;78.70;;;;;;5052249;28;20450;-76
2023/04/19 00:44:22;;;;;;;19.87;10.53;;;11.10;78.70;;;;;;5051860;28;20200;-77
2023/04/19 00:46:48;;;;;;;21.50;11.30;;;11.10;78.60;;;;;;5045928;28;20540;-76
2023/04/19 00:49:14;;;;;;;22.03;10.83;;;11.20;78.40;;;;;;5051836;28;20423;-76
2023/04/19 00:51:40;;;;;;;22.20;11.57;;;11.10;78.40;;;;;;5051861;28;20485;-76
2023/04/19 00:54:07;;;;;;;19.37;11.50;;;11.10;78.30;;;;;;5033555;28;20434;-75
2023/04/19 00:56:33;;;;;;;21.00;11.90;;;11.00;78.70;;;;;;5049502;28;20467;-76
2023/04/19 00:58:59;;;;;;;18.53;10.90;;;11.00;78.90;;;;;;5034356;28;20426;-75
2023/04/19 01:01:24;;;;;;;26.00;12.27;;;11.00;79.00;;;;;;5052025;28;20431;-74
2023/04/19 01:03:50;;;;;;;22.63;11.40;;;11.00;78.70;;;;;;5034297;28;20237;-74
2023/04/19 01:06:16;;;;;;;24.03;11.93;;;11.00;78.70;;;;;;5051854;28;20215;-74
2023/04/19 01:08:42;;;;;;;22.30;11.93;;;11.00;78.70;;;;;;5057157;28;20459;-75
2023/04/19 01:11:07;;;;;;;18.20;11.03;;;11.00;78.90;;;;;;5059512;28;20423;-73
2023/04/19 01:13:33;;;;;;;27.03;12.37;;;11.00;79.00;;;;;;5051942;28;20196;-73
2023/04/19 01:15:59;;;;;;;27.77;11.73;;;11.00;78.90;;;;;;5063607;28;20219;-74
2023/04/19 01:18:28;;;;;;;21.73;11.73;;;11.00;78.90;;;;;;5069840;28;20192;-73
2023/04/19 01:20:54;;;;;;;20.20;12.30;;;11.00;79.00;;;;;;5060975;28;20446;-74
2023/04/19 01:23:20;;;;;;;22.17;11.43;;;11.00;79.20;;;;;;5056537;28;20419;-75
2023/04/19 01:25:46;;;;;;;22.40;13.03;;;11.00;79.20;;;;;;5051932;28;20212;-75
2023/04/19 01:28:12;;;;;;;24.33;12.20;;;11.00;79.30;;;;;;5033352;28;20423;-75
2023/04/19 01:30:37;;;;;;;24.17;13.47;;;11.00;79.30;;;;;;5053460;28;20438;-75
2023/04/19 01:33:03;;;;;;;23.27;11.83;;;11.00;79.00;;;;;;5053236;28;20208;-74
2023/04/19 01:35:28;;;;;;;25.93;12.30;;;10.90;79.20;;;;;;5052594;28;20185;-75
2023/04/19 01:37:55;;;;;;;21.10;12.17;;;10.80;79.50;;;;;;5047524;28;20234;-74
2023/04/19 01:40:24;;;;;;;23.50;12.53;;;10.80;79.50;;;;;;5051731;28;20188;-75
2023/04/19 01:42:50;;;;;;;23.93;12.00;;;10.80;79.50;;;;;;5046655;28;21008;-76
2023/04/19 01:45:16;;;;;;;20.53;11.23;;;10.80;79.70;;;;;;5050868;28;20495;-75
2023/04/19 01:47:41;;;;;;;23.17;12.00;;;10.90;79.70;;;;;;5048236;28;20561;-75
2023/04/19 01:50:07;;;;;;;24.53;12.70;;;10.90;79.60;;;;;;5051150;28;20174;-74
2023/04/19 01:52:33;;;;;;;25.37;11.73;;;10.80;79.70;;;;;;5053688;28;20188;-74
2023/04/19 01:54:58;;;;;;;23.07;10.90;;;10.80;79.70;;;;;;5065200;28;20422;-74
2023/04/19 01:57:24;;;;;;;20.10;11.43;;;10.80;79.70;;;;;;5054658;28;20246;-75
2023/04/19 01:59:54;;;;;;;26.83;12.00;;;10.80;79.70;;;;;;5051040;28;20194;-74
2023/04/19 02:02:20;;;;;;;25.47;12.80;;;10.80;79.70;;;;;;5051670;28;20184;-74
2023/04/19 02:04:45;;;;;;;21.53;11.63;;;10.80;79.70;;;;;;5034582;28;20480;-75
2023/04/19 02:07:11;;;;;;;24.67;13.20;;;10.70;79.90;;;;;;5048491;28;20482;-75
2023/04/19 02:09:37;;;;;;;20.50;11.73;;;10.70;80.00;;;;;;5032860;28;20184;-76
2023/04/19 02:12:04;;;;;;;25.40;12.83;;;10.70;80.30;;;;;;5051390;28;20215;-75
2023/04/19 02:14:30;;;;;;;23.07;12.10;;;10.70;80.30;;;;;;5051581;28;20430;-75
2023/04/19 02:16:56;;;;;;;26.43;12.30;;;10.70;80.30;;;;;;5044883;28;20462;-74
2023/04/19 02:19:22;;;;;;;27.43;14.60;;;10.70;80.50;;;;;;5050295;28;20798;-74
2023/04/19 02:21:47;;;;;;;25.27;13.33;;;10.60;80.50;;;;;;5050489;28;20184;-75
2023/04/19 02:24:13;;;;;;;23.47;11.90;;;10.60;80.80;;;;;;5050438;28;20200;-73
2023/04/19 02:26:39;;;;;;;25.20;13.50;;;10.60;80.80;;;;;;5044750;28;20231;-75
2023/04/19 02:29:05;;;;;;;27.40;13.10;;;10.60;80.80;;;;;;5051065;28;20181;-74
2023/04/19 02:31:31;;;;;;;24.83;13.10;;;10.60;80.90;;;;;;5050709;28;20910;-75
2023/04/19 02:33:57;;;;;;;24.67;13.87;;;10.60;80.90;;;;;;5033036;28;20473;-73
2023/04/19 02:36:22;;;;;;;25.93;12.87;;;10.60;80.80;;;;;;5055392;28;20232;-74
2023/04/19 02:38:48;;;;;;;27.33;12.80;;;10.60;80.90;;;;;;5069799;28;20195;-74
2023/04/19 02:41:13;;;;;;;24.80;13.47;;;10.50;81.10;;;;;;5071833;28;20192;-73
2023/04/19 02:43:39;;;;;;;25.77;12.87;;;10.50;81.10;;;;;;5068512;28;20200;-74
2023/04/19 02:46:05;;;;;;;26.33;12.43;;;10.50;81.20;;;;;;5067025;28;20220;-74
2023/04/19 02:48:30;;;;;;;28.50;12.97;;;10.50;81.20;;;;;;5070491;28;20184;-74
2023/04/19 02:50:56;;;;;;;26.53;13.97;;;10.50;81.20;;;;;;5070226;28;20446;-74
2023/04/19 02:53:22;;;;;;;24.70;12.50;;;10.50;81.20;;;;;;5070320;28;20181;-74
2023/04/19 02:55:47;;;;;;;22.60;13.00;;;10.50;81.40;;;;;;5064311;28;20751;-74
2023/04/19 02:58:13;;;;;;;25.47;13.07;;;10.40;81.40;;;;;;5063030;28;20184;-74
2023/04/19 03:00:38;;;;;;;23.67;13.13;;;10.40;81.50;;;;;;5063233;28;20192;-74
2023/04/19 03:03:04;;;;;;;26.33;13.73;;;10.40;81.50;;;;;;5061784;28;20211;-74
2023/04/19 03:05:30;;;;;;;24.07;13.33;;;10.40;81.70;;;;;;5058259;28;20211;-73
2023/04/19 03:07:55;;;;;;;30.03;14.47;;;10.40;81.70;;;;;;5034462;28;20210;-75
2023/04/19 03:10:21;;;;;;;33.47;14.90;;;10.40;81.80;;;;;;5058555;28;20985;-74
2023/04/19 03:12:46;;;;;;;25.60;13.13;;;10.40;81.90;;;;;;5059622;28;20272;-74
2023/04/19 03:15:12;;;;;;;34.43;16.03;;;10.40;81.80;;;;;;5060083;28;20177;-74
2023/04/19 03:17:38;;;;;;;25.83;14.27;;;10.30;81.90;;;;;;5060804;28;20200;-74
2023/04/19 03:20:09;;;;;;;30.73;14.17;;;10.30;82.20;;;;;;5064592;28;20284;-74
2023/04/19 03:22:35;;;;;;;28.27;13.50;;;10.30;82.40;;;;;;5066176;28;20191;-74
2023/04/19 03:25:01;;;;;;;29.20;14.40;;;10.30;82.40;;;;;;5064678;28;20418;-74
2023/04/19 03:27:26;;;;;;;27.10;15.03;;;10.30;82.20;;;;;;5041508;28;20216;-74
2023/04/19 03:29:52;;;;;;;26.70;14.30;;;10.20;82.20;;;;;;5065787;28;20188;-74
2023/04/19 03:32:17;;;;;;;27.70;13.87;;;10.30;82.50;;;;;;5065272;28;20206;-74
2023/04/19 03:34:43;;;;;;;28.43;15.50;;;10.30;82.50;;;;;;5065774;28;20181;-73
2023/04/19 03:37:09;;;;;;;30.47;13.93;;;10.30;82.40;;;;;;5042841;28;20212;-75
2023/04/19 03:39:34;;;;;;;31.03;14.70;;;10.30;82.40;;;;;;5045764;28;20219;-75
2023/04/19 03:42:00;;;;;;;24.40;13.23;;;10.20;82.40;;;;;;5054726;28;20177;-74
2023/04/19 03:44:26;;;;;;;29.50;15.33;;;10.10;82.50;;;;;;5056664;28;20204;-75
2023/04/19 03:46:51;;;;;;;30.43;14.33;;;10.00;82.80;;;;;;5050628;28;20266;-73
2023/04/19 03:49:17;;;;;;;31.13;15.30;;;10.00;83.10;;;;;;5053886;28;20194;-73
2023/04/19 03:51:43;;;;;;;27.00;14.17;;;9.90;83.40;;;;;;5053146;28;20199;-75
2023/04/19 03:54:09;;;;;;;26.60;13.20;;;9.90;83.70;;;;;;5053242;28;20438;-74
2023/04/19 03:56:34;;;;;;;28.43;14.30;;;9.90;83.80;;;;;;5048579;28;20216;-75
2023/04/19 03:59:00;;;;;;;36.20;16.67;;;9.90;83.80;;;;;;5053127;28;20232;-75
2023/04/19 04:01:25;;;;;;;27.77;14.80;;;9.80;83.70;;;;;;5053396;28;20188;-75
2023/04/19 04:03:51;;;;;;;30.90;14.60;;;9.70;84.10;;;;;;5053464;28;20181;-75
2023/04/19 04:06:17;;;;;;;30.33;14.30;;;9.80;84.30;;;;;;5051215;28;20212;-75
2023/04/19 04:08:42;;;;;;;36.50;14.40;;;9.90;84.30;;;;;;5054256;28;20196;-75
2023/04/19 04:11:08;;;;;;;32.30;14.10;;;9.90;83.80;;;;;;5060402;28;20181;-74
2023/04/19 04:13:33;;;;;;;31.73;16.20;;;9.90;83.70;;;;;;5040985;28;20199;-74
2023/04/19 04:15:59;;;;;;;30.50;15.50;;;10.00;83.40;;;;;;5056802;28;20270;-73
2023/04/19 04:18:27;;;;;;;33.80;15.30;;;9.90;83.30;;;;;;5062720;28;20195;-73
2023/04/19 04:20:52;;;;;;;25.47;14.20;;;9.90;83.30;;;;;;5058680;28;20189;-75
2023/04/19 04:23:20;;;;;;;34.57;15.27;;;9.80;83.60;;;;;;5058973;28;20431;-75
2023/04/19 04:25:46;;;;;;;30.43;16.40;;;9.80;83.70;;;;;;5049381;28;20200;-74
2023/04/19 04:28:12;;;;;;;40.00;15.00;;;9.70;83.80;;;;;;5046467;28;20447;-76
2023/04/19 04:30:39;;;;;;;26.00;14.07;;;9.70;84.30;;;;;;5050819;28;20526;-74
2023/04/19 04:33:05;;;;;;;36.87;17.03;;;9.70;84.30;;;;;;5051180;28;20427;-74
2023/04/19 04:35:30;;;;;;;31.93;15.17;;;9.70;84.30;;;;;;5047529;28;20424;-74
2023/04/19 04:37:56;;;;;;;28.27;14.67;;;9.60;84.40;;;;;;5048346;28;20568;-74
2023/04/19 04:40:21;;;;;;;26.30;14.30;;;9.60;84.40;;;;;;5050202;28;20230;-74
2023/04/19 04:42:48;;;;;;;30.77;14.87;;;9.60;84.60;;;;;;5051775;28;20690;-75
2023/04/19 04:45:16;;;;;;;34.60;16.47;;;9.60;84.60;;;;;;5028041;28;20929;-74
2023/04/19 04:47:42;;;;;;;32.33;15.40;;;9.50;84.40;;;;;;5044951;28;20458;-74
2023/04/19 04:50:08;;;;;;;30.93;14.77;;;9.60;84.60;;;;;;5050409;28;20485;-73
2023/04/19 04:52:34;;;;;;;31.80;15.50;;;9.50;84.40;;;;;;5051322;28;20261;-74
2023/04/19 04:54:59;;;;;;;29.90;15.00;;;9.50;84.30;;;;;;5053501;28;20419;-74
2023/04/19 04:57:25;;;;;;;30.97;15.10;;;9.50;84.30;;;;;;5052381;28;20581;-74
2023/04/19 04:59:50;;;;;;;29.10;14.30;;;9.50;84.00;;;;;;5063247;28;20321;-75
2023/04/19 05:02:16;;;;;;;27.70;14.00;;;9.60;84.00;;;;;;5051688;28;20378;-76
2023/04/19 05:04:41;;;;;;;27.10;14.20;;;9.60;83.70;;;;;;5051107;28;20575;-76
2023/04/19 05:07:07;;;;;;;28.77;14.87;;;9.60;83.80;;;;;;5047013;28;20216;-74
2023/04/19 05:09:33;;;;;;;27.43;14.20;;;9.70;83.70;;;;;;5032675;28;20279;-74
2023/04/19 05:11:58;;;;;;;30.10;14.20;;;9.70;83.40;;;;;;5048711;28;20192;-75
2023/04/19 05:14:24;;;;;;;33.30;16.10;;;9.70;83.30;;;;;;5032762;28;20632;-74
2023/04/19 05:16:49;;;;;;;28.57;13.43;;;9.70;83.40;;;;;;5046869;28;20213;-74
2023/04/19 05:19:15;;;;;;;30.20;14.70;;;9.70;83.10;;;;;;5052211;28;20188;-75
2023/04/19 05:21:40;;;;;;;30.20;14.80;;;9.70;83.10;;;;;;5057435;28;20298;-74
2023/04/19 05:24:08;;;;;;;28.67;14.77;;;9.70;82.80;;;;;;5055628;28;20647;-74
2023/04/19 05:26:34;;;;;;;32.50;15.13;;;9.80;82.80;;;;;;5056987;28;20315;-74
2023/04/19 05:29:00;;;;;;;28.97;13.67;;;9.80;82.40;;;;;;5058669;28;20462;-73
2023/04/19 05:31:25;;;;;;;26.73;14.77;;;9.80;82.20;;;;;;5051297;28;20184;-74
2023/04/19 05:33:51;;;;;;;30.50;14.57;;;9.80;82.20;;;;;;5051089;28;20180;-74
2023/04/19 05:36:16;;;;;;;31.80;14.87;;;9.70;82.70;;;;;;5048247;28;20295;-74
2023/04/19 05:38:42;;;;;;;30.93;14.47;;;9.70;82.70;;;;;;5050004;28;20555;-75
2023/04/19 05:41:07;;;;;;;28.33;13.53;;;9.80;82.40;;;;;;5050242;28;20191;-75
2023/04/19 05:43:33;;;;;;;36.47;15.70;;;9.70;82.20;;;;;;5053328;28;20454;-75
2023/04/19 05:45:58;;;;;;;32.20;15.50;;;9.70;82.40;;;;;;5047754;28;20213;-73
2023/04/19 05:48:24;;;;;;;25.60;13.43;;;9.80;82.40;;;;;;5047656;28;20254;-76
2023/04/19 05:50:53;;;;;;;32.13;15.07;;;9.80;81.90;;;;;;5050264;28;20242;-74
2023/04/19 05:53:18;;;;;;;34.30;15.47;;;9.90;81.80;;;;;;5051079;28;20272;-75
2023/04/19 05:55:44;;;;;;;33.93;14.40;;;9.60;81.90;;;;;;5049874;28;20419;-75
2023/04/19 05:58:10;;;;;;;31.53;14.40;;;9.50;82.50;;;;;;5049714;28;20256;-75
2023/04/19 06:00:36;;;;;;;27.90;14.80;;;9.60;83.00;;;;;;5042779;28;20192;-74
2023/04/19 06:03:01;;;;;;;30.47;15.47;;;9.70;82.20;;;;;;5065764;28;20211;-75
2023/04/19 06:05:27;;;;;;;31.23;14.80;;;9.80;81.90;;;;;;5060225;28;20842;-75
2023/04/19 06:07:55;;;;;;;30.23;14.57;;;9.90;81.50;;;;;;5055515;28;20267;-75
2023/04/19 06:10:21;;;;;;;25.37;13.33;;;9.90;81.10;;;;;;5068438;28;20172;-74
2023/04/19 06:12:47;;;;;;;24.80;14.23;;;9.80;81.40;;;;;;5052566;28;20584;-74
2023/04/19 06:15:12;;;;;;;30.33;15.20;;;9.90;81.40;;;;;;5049457;28;20969;-74
2023/04/19 06:17:38;;;;;;;28.50;14.70;;;10.00;81.20;;;;;;5029456;28;20709;-75
2023/04/19 06:20:06;;;;;;;28.87;14.30;;;10.00;80.60;;;;;;5049625;28;20204;-75
2023/04/19 06:22:32;;;;;;;28.90;14.77;;;10.10;80.80;;;;;;5066988;28;20172;-75
2023/04/19 06:24:57;;;;;;;31.47;15.63;;;10.10;80.60;;;;;;5053555;28;20434;-75
2023/04/19 06:27:23;;;;;;;26.40;13.10;;;10.20;80.00;;;;;;5044510;28;20832;-75
2023/04/19 06:29:48;;;;;;;29.53;14.10;;;10.30;79.70;;;;;;5049615;28;20757;-75
2023/04/19 06:32:14;;;;;;;28.43;14.80;;;10.30;79.50;;;;;;5049819;28;20770;-76
2023/04/19 06:34:39;;;;;;;29.77;14.90;;;10.30;79.20;;;;;;5048899;28;20238;-75
2023/04/19 06:37:05;;;;;;;26.63;13.80;;;10.30;79.00;;;;;;5046482;28;20247;-76
2023/04/19 06:39:31;;;;;;;28.50;13.57;;;10.30;79.00;;;;;;5049809;28;20185;-75
2023/04/19 06:41:56;;;;;;;22.80;12.67;;;10.20;79.00;;;;;;5049303;28;20262;-74
2023/04/19 06:44:22;;;;;;;26.27;13.40;;;10.20;79.30;;;;;;5047486;28;20308;-74
2023/04/19 06:46:47;;;;;;;23.57;12.50;;;10.40;79.20;;;;;;5046820;28;20220;-75
2023/04/19 06:49:13;;;;;;;27.70;13.67;;;10.50;78.90;;;;;;5046531;28;20177;-75
2023/04/19 06:51:39;;;;;;;29.27;14.50;;;10.50;78.30;;;;;;5051708;28;20254;-75
2023/04/19 06:54:04;;;;;;;28.80;13.53;;;10.50;78.00;;;;;;5053312;28;20569;-78
2023/04/19 06:56:44;;;;;;;26.43;13.27;;;10.50;78.60;;;;;;5048109;28;20291;-75
2023/04/19 06:59:16;;;;;;;26.87;13.40;;;10.60;78.10;;;;;;5051189;28;20210;-74
2023/04/19 07:01:42;;;;;;;25.93;12.53;;;10.80;77.80;;;;;;5037696;28;20587;-74
2023/04/19 07:04:08;;;;;;;29.83;14.10;;;10.80;77.10;;;;;;5057918;28;20442;-74
2023/04/19 07:06:37;;;;;;;26.30;13.40;;;10.90;77.30;;;;;;5047917;28;20509;-74
2023/04/19 07:09:04;;;;;;;27.27;14.83;;;11.10;76.50;;;;;;5055014;28;20173;-76
2023/04/19 07:11:30;;;;;;;25.00;13.60;;;11.10;76.20;;;;;;5053768;28;20771;-75
2023/04/19 07:13:56;;;;;;;25.33;12.83;;;11.10;75.90;;;;;;5053885;28;20418;-77
2023/04/19 07:16:22;;;;;;;27.70;14.30;;;11.10;76.10;;;;;;5047030;28;20205;-75
2023/04/19 07:18:47;;;;;;;34.13;14.87;;;11.10;76.10;;;;;;5053776;28;20421;-76
2023/04/19 07:21:13;;;;;;;30.97;13.37;;;10.70;76.80;;;;;;5050017;28;20244;-76
2023/04/19 07:23:39;;;;;;;27.70;13.30;;;10.60;77.40;;;;;;5053335;28;20303;-76
2023/04/19 07:26:04;;;;;;;26.93;12.77;;;10.70;77.40;;;;;;5049186;28;20220;-78
2023/04/19 07:28:30;;;;;;;27.13;13.83;;;10.90;77.60;;;;;;5057957;28;20276;-75
2023/04/19 07:30:56;;;;;;;25.87;11.97;;;11.00;77.00;;;;;;5065715;28;20188;-76
2023/04/19 07:33:23;;;;;;;23.50;12.03;;;11.10;76.40;;;;;;5058119;28;20188;-77
2023/04/19 07:35:50;;;;;;;23.50;13.20;;;11.20;76.20;;;;;;5050403;28;20435;-76
2023/04/19 07:38:15;;;;;;;32.93;15.77;;;11.40;75.90;;;;;;5037947;28;20441;-76
2023/04/19 07:40:41;;;;;;;22.63;12.27;;;11.50;75.50;;;;;;5053969;28;20439;-76
2023/04/19 07:43:07;;;;;;;25.10;12.93;;;11.30;75.20;;;;;;5051189;28;20200;-78
2023/04/19 07:45:32;;;;;;;24.87;13.03;;;11.20;75.80;;;;;;5052353;28;20198;-77
2023/04/19 07:47:58;;;;;;;25.70;12.90;;;11.20;75.70;;;;;;5048111;28;20390;-76
2023/04/19 07:50:26;;;;;;;23.10;12.67;;;11.00;76.40;;;;;;5051786;28;20191;-76
2023/04/19 07:52:52;;;;;;;27.23;12.30;;;11.00;76.80;;;;;;5034532;28;20184;-75
2023/04/19 07:55:18;;;;;;;28.20;13.43;;;11.20;76.80;;;;;;5051948;28;20425;-75
2023/04/19 07:57:47;;;;;;;26.43;14.60;;;11.50;75.80;;;;;;5047192;28;20450;-77
2023/04/19 08:00:20;;;;;;;29.33;13.27;;;11.40;75.10;;;;;;5052016;28;20411;-76
2023/04/19 08:02:46;;;;;;;23.63;12.13;;;11.20;75.20;;;;;;5051663;28;20451;-75
2023/04/19 08:05:15;;;;;;;32.23;13.97;;;11.20;75.70;;;;;;5051818;28;20434;-75
2023/04/19 08:07:41;;;;;;;31.23;13.60;;;11.10;75.70;;;;;;5049523;28;20822;-77
2023/04/19 08:10:07;;;;;;;25.40;13.13;;;11.20;75.80;;;;;;5033977;28;20438;-76
2023/04/19 08:12:33;;;;;;;22.30;11.90;;;11.50;75.40;;;;;;5052471;28;20215;-76
2023/04/19 08:14:58;;;;;;;21.20;11.60;;;11.60;75.10;;;;;;5051756;28;20869;-76
2023/04/19 08:17:25;;;;;;;23.47;11.03;;;11.80;73.70;;;;;;5045083;28;20220;-76
2023/04/19 08:19:51;;;;;;;22.60;12.47;;;11.90;74.20;;;;;;5033769;28;20188;-76
2023/04/19 08:22:18;;;;;;;22.70;11.70;;;12.00;73.00;;;;;;5052653;28;20438;-75
2023/04/19 08:24:43;;;;;;;25.57;12.73;;;11.90;73.20;;;;;;5051336;28;20173;-76
2023/04/19 08:27:10;;;;;;;22.27;12.20;;;12.00;73.00;;;;;;5050164;28;21341;-76
2023/04/19 08:29:37;;;;;;;21.17;10.47;;;12.00;73.00;;;;;;5052589;28;20254;-73
2023/04/19 08:32:04;;;;;;;19.90;10.83;;;12.20;73.00;;;;;;5051268;28;20434;-75
2023/04/19 08:34:30;;;;;;;18.60;9.50;;;12.20;71.60;;;;;;5051690;28;20431;-76
2023/04/19 08:36:56;;;;;;;24.87;11.07;;;12.30;71.70;;;;;;5049139;28;21213;-75
2023/04/19 08:39:21;;;;;;;16.40;9.60;;;12.40;71.00;;;;;;5051484;28;20419;-76
2023/04/19 08:41:48;;;;;;;15.13;9.20;;;12.50;70.20;;;;;;5049426;28;20663;-75
2023/04/19 08:44:16;;;;;;;17.40;9.20;;;12.50;69.90;;;;;;5051698;28;20273;-75
2023/04/19 08:46:42;;;;;;;15.80;9.20;;;12.70;70.20;;;;;;5047463;28;20491;-74
2023/04/19 08:49:09;;;;;;;15.87;9.60;;;12.80;69.70;;;;;;5051423;28;20423;-75
2023/04/19 08:51:37;;;;;;;18.30;8.83;;;12.50;69.10;;;;;;5044605;28;21056;-76
2023/04/19 08:54:06;;;;;;;18.03;8.57;;;12.30;70.10;;;;;;5058114;28;20426;-75
2023/04/19 08:56:32;;;;;;;21.43;9.40;;;12.50;69.90;;;;;;5051144;28;20463;-74
2023/04/19 08:58:58;;;;;;;22.73;13.90;;;12.60;69.50;;;;;;5054078;28;20422;-75
2023/04/19 09:01:23;;;;;;;16.60;8.50;;;12.70;69.40;;;;;;5060225;28;20185;-74
2023/04/19 09:03:49;;;;;;;17.00;9.50;;;12.90;68.50;;;;;;5053543;28;20258;-73
2023/04/19 09:06:15;;;;;;;19.07;9.80;;;12.70;68.30;;;;;;5033371;28;20254;-73
2023/04/19 09:08:41;;;;;;;18.60;10.07;;;12.70;68.80;;;;;;5052532;28;20530;-75
2023/04/19 09:11:07;;;;;;;17.93;9.33;;;12.60;68.60;;;;;;5052597;28;20430;-74
2023/04/19 09:13:35;;;;;;;15.67;8.33;;;12.70;69.40;;;;;;5052137;28;20180;-75
2023/04/19 09:16:01;;;;;;;19.13;10.50;;;12.80;69.20;;;;;;5050254;28;20435;-75
2023/04/19 09:18:27;;;;;;;16.40;8.87;;;12.90;69.10;;;;;;5049456;28;20431;-76
2023/04/19 09:20:56;;;;;;;17.93;9.30;;;13.00;69.10;;;;;;5034264;28;20185;-75
2023/04/19 09:23:24;;;;;;;20.40;9.20;;;13.10;69.10;;;;;;5034263;28;20777;-75
2023/04/19 09:26:01;;;;;;;21.40;10.67;;;13.30;69.10;;;;;;5052746;28;20823;-78
2023/04/19 09:28:28;;;;;;;24.10;9.60;;;13.10;69.10;;;;;;5052213;28;20924;-75
2023/04/19 09:30:57;;;;;;;17.60;8.70;;;13.00;69.20;;;;;;5055686;28;20425;-75
2023/04/19 09:33:34;;;;;;;16.33;10.07;;;13.20;69.40;;;;;;5053387;28;20418;-76
2023/04/19 09:36:00;;;;;;;19.07;10.37;;;13.30;68.90;;;;;;5053620;28;20798;-76
2023/04/19 09:38:26;;;;;;;19.40;10.63;;;13.40;69.50;;;;;;5052318;28;20541;-76
2023/04/19 09:40:52;;;;;;;20.50;11.13;;;13.20;69.70;;;;;;5052252;28;20889;-73
2023/04/19 09:43:26;;;;;;;20.20;10.90;;;13.10;70.20;;;;;;5052858;28;20789;-74
2023/04/19 09:45:52;;;;;;;19.67;10.33;;;13.20;70.20;;;;;;5053005;28;20196;-73
2023/04/19 09:48:17;;;;;;;21.30;11.30;;;13.00;70.50;;;;;;5050286;28;20469;-74
2023/04/19 09:50:52;;;;;;;18.47;10.97;;;12.80;70.80;;;;;;5052782;28;20647;-76
2023/04/19 09:53:18;;;;;;;21.93;12.57;;;12.80;71.10;;;;;;5049599;28;20194;-77
2023/04/19 09:55:46;;;;;;;19.60;10.10;;;12.90;70.80;;;;;;5053563;28;20423;-76
2023/04/19 09:58:12;;;;;;;21.30;10.90;;;13.00;70.40;;;;;;5053269;28;20427;-75
2023/04/19 10:00:40;;;;;;;20.83;10.70;;;12.90;70.20;;;;;;5053678;28;20483;-74
2023/04/19 10:03:08;;;;;;;19.87;10.93;;;12.70;70.40;;;;;;5037523;28;20510;-75
2023/04/19 10:05:35;;;;;;;17.60;10.13;;;12.80;70.40;;;;;;5056489;28;20522;-75
2023/04/19 10:08:02;;;;;;;23.63;11.57;;;13.00;70.10;;;;;;5056665;28;20458;-73
2023/04/19 10:10:30;;;;;;;22.03;10.30;;;12.90;69.80;;;;;;5051513;28;20426;-75
2023/04/19 10:12:59;;;;;;;20.70;10.53;;;13.10;69.80;;;;;;5051783;28;20815;-74
2023/04/19 10:15:26;;;;;;;22.33;10.80;;;13.40;69.20;;;;;;5043700;28;20484;-74
2023/04/19 10:17:52;;;;;;;29.43;11.60;;;13.60;68.60;;;;;;5050794;28;20446;-75
2023/04/19 10:20:48;;;;;;;20.63;10.17;;;13.60;68.50;;;;;;5053427;28;20407;-73
2023/04/19 10:23:14;;;;;;;20.70;10.43;;;13.50;68.90;;;;;;5048466;28;20499;-76
2023/04/19 10:25:44;;;;;;;17.67;11.00;;;13.50;68.30;;;;;;5052241;28;21221;-74
2023/04/19 10:28:10;;;;;;;22.17;10.90;;;13.60;68.90;;;;;;5058342;28;20480;-74
2023/04/19 10:30:35;;;;;;;21.17;10.50;;;13.80;68.60;;;;;;5059968;28;20419;-75
2023/04/19 10:33:02;;;;;;;20.20;11.20;;;13.90;68.20;;;;;;5056972;28;20538;-73
2023/04/19 10:35:36;;;;;;;22.43;10.57;;;13.90;68.50;;;;;;5055363;28;20180;-73
2023/04/19 10:38:15;;;;;;;17.00;9.63;;;13.70;68.80;;;;;;5056290;28;20452;-74
2023/04/19 10:41:00;;;;;;;19.93;9.60;;;13.50;69.10;;;;;;5042810;28;20434;-74
2023/04/19 10:43:27;;;;;;;15.40;9.03;;;13.50;69.50;;;;;;5053632;28;20442;-73
2023/04/19 10:45:53;;;;;;;20.37;9.70;;;13.50;69.40;;;;;;5054320;28;20466;-76
2023/04/19 10:48:26;;;;;;;15.13;9.20;;;13.50;69.20;;;;;;5056676;28;20426;-76
2023/04/19 10:51:04;;;;;;;19.50;11.00;;;13.60;69.50;;;;;;5055019;28;20514;-75
2023/04/19 10:53:44;;;;;;;17.47;9.37;;;13.50;69.70;;;;;;5055287;28;20411;-75
2023/04/19 10:56:10;;;;;;;20.87;11.43;;;13.40;69.80;;;;;;5051715;28;20453;-74
2023/04/19 10:59:09;;;;;;;21.23;10.63;;;13.10;69.90;;;;;;5054126;28;20790;-74
2023/04/19 11:01:41;;;;;;;19.87;10.57;;;12.80;70.50;;;;;;5061447;28;20423;-74
2023/04/19 11:04:15;;;;;;;18.67;10.47;;;12.70;71.40;;;;;;5055297;28;20434;-73
2023/04/19 11:07:05;;;;;;;18.37;9.97;;;12.90;71.30;;;;;;5056099;28;20482;-76
2023/04/19 11:09:44;;;;;;;18.53;10.37;;;13.00;71.00;;;;;;5047222;28;20469;-74
2023/04/19 11:12:12;;;;;;;19.70;10.23;;;12.90;70.80;;;;;;5054758;28;20421;-73
2023/04/19 11:14:45;;;;;;;21.30;9.40;;;13.00;71.00;;;;;;5054216;28;20790;-75
2023/04/19 11:17:26;;;;;;;19.17;10.57;;;12.90;71.00;;;;;;5053513;28;20458;-75
2023/04/19 11:20:06;;;;;;;19.43;10.50;;;12.70;71.40;;;;;;5048390;28;20509;-73
2023/04/19 11:22:38;;;;;;;19.57;11.20;;;12.60;71.70;;;;;;5045823;28;20510;-76
2023/04/19 11:25:12;;;;;;;20.70;10.50;;;12.60;72.10;;;;;;5054360;28;20423;-75
2023/04/19 11:27:43;;;;;;;22.00;10.57;;;12.50;72.30;;;;;;5053058;28;20470;-75
2023/04/19 11:30:10;;;;;;;20.93;10.40;;;12.60;72.40;;;;;;5055093;28;20422;-74
2023/04/19 11:32:36;;;;;;;19.13;10.53;;;12.40;72.60;;;;;;5036588;28;20818;-74
2023/04/19 11:35:09;;;;;;;21.17;11.20;;;12.30;73.00;;;;;;5055049;28;20480;-75
2023/04/19 11:37:36;;;;;;;17.90;10.87;;;12.20;73.30;;;;;;5054049;28;20512;-74
2023/04/19 11:40:04;;;;;;;22.60;11.50;;;12.40;73.50;;;;;;5055491;28;20423;-73
2023/04/19 11:42:29;;;;;;;24.50;11.33;;;12.30;73.50;;;;;;5059372;28;20427;-76
2023/04/19 11:44:57;;;;;;;21.43;11.37;;;12.20;74.00;;;;;;5050986;28;21048;-74
2023/04/19 11:47:22;;;;;;;20.00;10.83;;;12.00;74.30;;;;;;5054097;28;20210;-72
2023/04/19 11:49:48;;;;;;;19.57;10.57;;;12.10;74.60;;;;;;5062195;28;20502;-73
2023/04/19 11:52:24;;;;;;;27.80;12.33;;;12.00;74.60;;;;;;5038803;28;20177;-73
2023/04/19 11:54:51;;;;;;;21.47;11.77;;;12.00;74.90;;;;;;5054022;28;20177;-73
2023/04/19 11:57:27;;;;;;;26.17;12.80;;;11.80;75.50;;;;;;5048963;28;20458;-76
2023/04/19 12:00:11;;;;;;;23.80;13.50;;;11.60;76.70;;;;;;5051705;28;20476;-74
2023/04/19 12:02:38;;;;;;;29.00;14.20;;;11.60;77.70;;;;;;5051683;28;20423;-74
2023/04/19 12:05:14;;;;;;;26.67;14.50;;;11.60;78.90;;;;;;5034809;28;20431;-75
2023/04/19 12:07:58;;;;;;;28.53;15.40;;;11.50;79.70;;;;;;5046227;28;20478;-75
2023/04/19 12:10:24;;;;;;;30.83;15.30;;;11.50;81.10;;;;;;5052451;28;20413;-74
2023/04/19 12:12:50;;;;;;;31.00;15.43;;;11.50;82.20;;;;;;5047982;28;20423;-77
2023/04/19 12:15:15;;;;;;;27.40;15.60;;;11.50;83.30;;;;;;5051685;28;20209;-74
2023/04/19 12:18:01;;;;;;;28.23;14.60;;;11.40;83.80;;;;;;5047151;28;20274;-74
2023/04/19 12:20:35;;;;;;;35.80;15.57;;;11.40;84.90;;;;;;5048081;28;20189;-75
2023/04/19 12:23:01;;;;;;;35.53;16.37;;;11.20;84.00;;;;;;5051358;28;20442;-75
2023/04/19 12:25:31;;;;;;;28.67;15.47;;;11.30;85.30;;;;;;5051414;28;20861;-75
2023/04/19 12:27:57;;;;;;;29.33;16.63;;;11.10;84.90;;;;;;5048571;28;20451;-76
2023/04/19 12:30:22;;;;;;;34.00;16.33;;;10.90;85.30;;;;;;5053611;28;20429;-76